createdAt,value
2019-02-27T00:01:24.688Z,7.00
2019-02-27T00:03:53.744Z,6.90
2019-02-27T00:06:22.777Z,6.90
2019-02-27T00:08:51.923Z,6.90
2019-02-27T00:11:21.142Z,6.90
2019-02-27T00:13:50.178Z,6.90
2019-02-27T00:16:19.195Z,6.90
2019-02-27T00:18:48.394Z,6.80
2019-02-27T00:21:17.320Z,6.80
2019-02-27T00:23:46.768Z,6.80
2019-02-27T00:26:15.838Z,6.80
2019-02-27T00:28:45.028Z,6.80
2019-02-27T00:31:14.013Z,6.80
2019-02-27T00:33:43.103Z,6.80
2019-02-27T00:36:12.953Z,6.80
2019-02-27T00:38:42.078Z,6.80
2019-02-27T00:41:12.814Z,6.80
2019-02-27T00:43:41.979Z,6.80
2019-02-27T00:46:13.305Z,6.80
2019-02-27T00:48:41.902Z,6.70
2019-02-27T00:51:12.041Z,6.70
2019-02-27T00:53:41.680Z,6.70
2019-02-27T00:56:12.251Z,6.60
2019-02-27T00:58:42.048Z,6.60
2019-02-27T01:01:12.607Z,6.60
2019-02-27T01:03:41.965Z,6.60
2019-02-27T01:06:12.249Z,6.50
2019-02-27T01:08:41.952Z,6.50
2019-02-27T01:11:11.159Z,6.50
2019-02-27T01:13:40.168Z,6.50
2019-02-27T01:16:09.247Z,6.50
2019-02-27T01:18:38.287Z,6.40
2019-02-27T01:21:07.355Z,6.40
2019-02-27T01:23:36.624Z,6.40
2019-02-27T01:26:05.702Z,6.40
2019-02-27T01:28:34.790Z,6.40
2019-02-27T01:31:03.970Z,6.40
2019-02-27T01:33:37.727Z,6.40
2019-02-27T01:36:03.865Z,6.40
2019-02-27T01:38:32.858Z,6.40
2019-02-27T01:41:01.927Z,6.40
2019-02-27T01:43:31.286Z,6.30
2019-02-27T01:46:00.539Z,6.30
2019-02-27T01:48:29.691Z,6.30
2019-02-27T01:50:58.664Z,6.30
2019-02-27T01:53:27.635Z,6.20
2019-02-27T01:55:56.974Z,6.20
2019-02-27T01:58:25.959Z,6.20
2019-02-27T02:00:56.232Z,6.10
2019-02-27T02:03:25.780Z,6.10
2019-02-27T02:05:58.772Z,6.10
2019-02-27T02:08:25.567Z,6.10
2019-02-27T02:10:55.647Z,6.10
2019-02-27T02:13:48.004Z,6.10
2019-02-27T02:16:34.388Z,6.10
2019-02-27T02:19:44.162Z,6.00
2019-02-27T02:23:02.970Z,6.00
2019-02-27T02:26:01.874Z,6.00
2019-02-27T02:29:26.919Z,5.90
2019-02-27T02:32:33.259Z,5.90
2019-02-27T02:35:35.381Z,5.90
2019-02-27T02:38:30.674Z,5.80
2019-02-27T02:41:33.596Z,5.80
2019-02-27T02:44:27.767Z,5.70
2019-02-27T02:47:37.227Z,5.70
2019-02-27T02:50:39.748Z,5.70
2019-02-27T02:53:42.311Z,5.70
2019-02-27T02:56:48.296Z,5.60
2019-02-27T02:59:49.648Z,5.60
2019-02-27T03:02:50.420Z,5.60
2019-02-27T03:05:31.035Z,5.60
2019-02-27T03:08:21.277Z,5.60
2019-02-27T03:11:22.399Z,5.50
2019-02-27T03:14:27.753Z,5.50
2019-02-27T03:17:42.270Z,5.50
2019-02-27T03:21:01.248Z,5.50
2019-02-27T03:23:58.559Z,5.50
2019-02-27T03:26:53.035Z,5.40
2019-02-27T03:29:57.097Z,5.40
2019-02-27T03:33:01.525Z,5.40
2019-02-27T03:36:17.593Z,5.30
2019-02-27T03:39:25.190Z,5.30
2019-02-27T03:42:53.231Z,5.40
2019-02-27T03:45:47.196Z,5.40
2019-02-27T03:48:50.781Z,5.40
2019-02-27T03:51:49.075Z,5.30
2019-02-27T03:54:39.779Z,5.30
2019-02-27T03:57:22.330Z,5.30
2019-02-27T04:00:19.805Z,5.20
2019-02-27T04:03:18.161Z,5.20
2019-02-27T04:05:56.170Z,5.20
2019-02-27T04:08:56.966Z,5.10
2019-02-27T04:11:26.467Z,5.10
2019-02-27T04:14:03.367Z,5.10
2019-02-27T04:16:29.257Z,5.10
2019-02-27T04:19:02.723Z,5.10
2019-02-27T04:21:30.370Z,5.10
2019-02-27T04:23:59.510Z,5.00
2019-02-27T04:26:28.538Z,5.00
2019-02-27T04:28:57.508Z,5.00
2019-02-27T04:31:29.660Z,5.00
2019-02-27T04:34:00.358Z,5.00
2019-02-27T04:36:28.198Z,5.00
2019-02-27T04:38:57.219Z,5.00
2019-02-27T04:41:26.311Z,4.90
2019-02-27T04:43:55.214Z,5.00
2019-02-27T04:46:24.207Z,4.90
2019-02-27T04:48:53.166Z,4.90
2019-02-27T04:51:22.090Z,4.90
2019-02-27T04:53:51.134Z,4.90
2019-02-27T04:56:23.152Z,4.90
2019-02-27T04:58:51.098Z,4.90
2019-02-27T05:01:20.035Z,4.90
2019-02-27T05:03:49.304Z,4.90
2019-02-27T05:06:18.280Z,4.90
2019-02-27T05:08:47.415Z,4.90
2019-02-27T05:11:16.547Z,4.80
2019-02-27T05:13:45.458Z,4.80
2019-02-27T05:16:14.794Z,4.80
2019-02-27T05:18:43.927Z,4.80
2019-02-27T05:21:12.946Z,4.80
2019-02-27T05:23:41.999Z,4.80
2019-02-27T05:26:11.083Z,4.80
2019-02-27T05:28:40.126Z,4.80
2019-02-27T05:31:09.142Z,4.80
2019-02-27T05:33:39.875Z,4.70
2019-02-27T05:36:09.570Z,4.70
2019-02-27T05:38:41.005Z,4.70
2019-02-27T05:41:09.503Z,4.70
2019-02-27T05:43:38.841Z,4.70
2019-02-27T05:46:08.607Z,4.70
2019-02-27T05:48:37.742Z,4.70
2019-02-27T05:51:07.512Z,4.70
2019-02-27T05:53:37.459Z,4.70
2019-02-27T05:56:06.546Z,4.60
2019-02-27T05:58:35.639Z,4.60
2019-02-27T06:01:05.783Z,4.60
2019-02-27T06:03:34.921Z,4.60
2019-02-27T06:06:04.118Z,4.60
2019-02-27T06:08:36.798Z,4.60
2019-02-27T06:11:04.237Z,4.50
2019-02-27T06:13:33.437Z,4.50
2019-02-27T06:16:03.991Z,4.50
2019-02-27T06:18:34.246Z,4.50
2019-02-27T06:21:03.531Z,4.50
2019-02-27T06:23:35.422Z,4.40
2019-02-27T06:26:03.687Z,4.40
2019-02-27T06:28:32.974Z,4.50
2019-02-27T06:31:02.720Z,4.40
2019-02-27T06:33:32.340Z,4.40
2019-02-27T06:36:01.496Z,4.40
2019-02-27T06:38:30.489Z,4.40
2019-02-27T06:40:59.542Z,4.40
2019-02-27T06:43:28.524Z,4.40
2019-02-27T06:45:57.600Z,4.40
2019-02-27T06:48:26.775Z,4.40
2019-02-27T06:50:58.221Z,4.40
2019-02-27T06:53:26.650Z,4.40
2019-02-27T06:55:55.690Z,4.40
2019-02-27T06:58:24.788Z,4.40
2019-02-27T07:00:53.770Z,4.40
2019-02-27T07:03:22.996Z,4.40
2019-02-27T07:05:52.251Z,4.40
2019-02-27T07:08:21.592Z,4.40
2019-02-27T07:10:50.599Z,4.50
2019-02-27T07:13:21.583Z,4.50
2019-02-27T07:15:51.011Z,4.50
2019-02-27T07:18:21.403Z,4.50
2019-02-27T07:20:50.985Z,4.50
2019-02-27T07:23:23.601Z,4.50
2019-02-27T07:25:51.064Z,4.60
2019-02-27T07:28:20.187Z,4.60
2019-02-27T07:30:49.403Z,4.60
2019-02-27T07:33:18.502Z,4.70
2019-02-27T07:35:47.697Z,4.80
2019-02-27T07:38:21.384Z,4.80
2019-02-27T07:40:47.725Z,4.90
2019-02-27T07:43:17.024Z,4.90
2019-02-27T07:45:46.242Z,5.00
2019-02-27T07:48:15.467Z,5.00
2019-02-27T07:50:48.292Z,5.10
2019-02-27T07:53:17.700Z,5.10
2019-02-27T07:55:47.399Z,5.10
2019-02-27T07:58:16.687Z,5.20
2019-02-27T08:00:47.166Z,5.20
2019-02-27T08:03:16.585Z,5.30
2019-02-27T08:05:45.582Z,5.40
2019-02-27T08:08:14.892Z,5.50
2019-02-27T08:10:45.303Z,5.60
2019-02-27T08:13:14.771Z,5.70
2019-02-27T08:15:43.809Z,5.80
2019-02-27T08:18:12.905Z,5.90
2019-02-27T08:20:42.092Z,6.00
2019-02-27T08:23:11.309Z,6.20
2019-02-27T08:25:40.353Z,6.30
2019-02-27T08:28:09.564Z,6.50
2019-02-27T08:30:38.947Z,6.60
2019-02-27T08:33:08.963Z,6.70
2019-02-27T08:35:38.063Z,6.80
2019-02-27T08:38:07.184Z,6.90
2019-02-27T08:40:36.311Z,7.10
2019-02-27T08:43:05.444Z,7.30
2019-02-27T08:45:35.266Z,7.40
2019-02-27T08:48:04.495Z,7.50
2019-02-27T08:50:33.679Z,7.70
2019-02-27T08:53:02.822Z,7.80
2019-02-27T08:55:31.863Z,8.00
2019-02-27T08:58:04.445Z,8.10
2019-02-27T09:00:33.891Z,8.20
2019-02-27T09:03:03.763Z,8.30
2019-02-27T09:05:32.933Z,8.40
2019-02-27T09:08:01.936Z,8.60
2019-02-27T09:10:31.041Z,8.70
2019-02-27T09:13:05.318Z,8.70
2019-02-27T09:15:31.120Z,8.90
2019-02-27T09:18:01.722Z,8.90
2019-02-27T09:20:31.393Z,9.00
2019-02-27T09:23:00.348Z,9.10
2019-02-27T09:25:32.209Z,9.10
2019-02-27T09:28:03.493Z,9.20
2019-02-27T09:30:32.571Z,9.30
2019-02-27T09:33:01.747Z,9.40
2019-02-27T09:35:34.486Z,9.50
2019-02-27T09:38:01.787Z,9.70
2019-02-27T09:40:30.976Z,9.80
2019-02-27T09:42:59.939Z,10.00
2019-02-27T09:45:30.444Z,10.10
2019-02-27T09:48:00.553Z,10.20
2019-02-27T09:50:37.603Z,10.30
2019-02-27T09:53:06.701Z,10.40
2019-02-27T09:55:35.645Z,10.50
2019-02-27T09:58:09.935Z,10.60
2019-02-27T10:00:37.554Z,10.80
2019-02-27T10:03:06.704Z,10.90
2019-02-27T10:05:36.644Z,11.10
2019-02-27T10:08:07.611Z,11.30
2019-02-27T10:10:36.941Z,11.50
2019-02-27T10:13:06.039Z,11.60
2019-02-27T10:15:35.155Z,11.60
2019-02-27T10:18:04.479Z,11.60
2019-02-27T10:20:36.809Z,11.80
2019-02-27T10:23:04.400Z,11.90
2019-02-27T10:25:33.505Z,12.00
2019-02-27T10:28:04.335Z,12.20
2019-02-27T10:30:33.520Z,12.30
2019-02-27T10:33:03.479Z,12.40
2019-02-27T10:35:34.668Z,12.50
2019-02-27T10:38:03.911Z,12.70
2019-02-27T10:40:32.971Z,12.80
2019-02-27T10:43:02.066Z,13.00
2019-02-27T10:45:31.207Z,13.10
2019-02-27T10:48:00.244Z,13.20
2019-02-27T10:50:29.359Z,13.40
2019-02-27T10:52:58.299Z,13.50
2019-02-27T10:55:27.374Z,13.70
2019-02-27T10:57:56.503Z,13.80
2019-02-27T11:00:35.460Z,14.00
2019-02-27T11:03:04.880Z,14.20
2019-02-27T11:05:34.258Z,14.40
2019-02-27T11:08:03.556Z,14.50
2019-02-27T11:10:32.959Z,14.60
2019-02-27T11:13:05.485Z,14.80
2019-02-27T11:15:33.210Z,14.90
2019-02-27T11:18:05.520Z,15.10
2019-02-27T11:20:33.162Z,15.20
2019-02-27T11:23:06.468Z,15.40
2019-02-27T11:25:33.189Z,15.50
2019-02-27T11:28:02.325Z,15.60
2019-02-27T11:30:35.985Z,15.70
2019-02-27T11:33:04.046Z,15.90
2019-02-27T11:35:33.232Z,16.10
2019-02-27T11:38:02.269Z,16.20
2019-02-27T11:40:31.301Z,16.30
2019-02-27T11:43:01.095Z,16.40
2019-02-27T11:45:30.344Z,16.60
2019-02-27T11:47:59.458Z,16.60
2019-02-27T11:50:28.446Z,16.80
2019-02-27T11:53:01.839Z,16.90
2019-02-27T11:55:28.425Z,17.10
2019-02-27T11:57:57.460Z,17.20
2019-02-27T12:00:27.724Z,17.30
2019-02-27T12:02:57.086Z,17.40
2019-02-27T12:05:30.831Z,17.50
2019-02-27T12:07:57.291Z,17.60
2019-02-27T12:10:27.416Z,17.60
2019-02-27T12:12:59.696Z,17.70
2019-02-27T12:15:27.439Z,17.80
2019-02-27T12:18:00.557Z,17.90
2019-02-27T12:20:28.250Z,18.10
2019-02-27T12:22:57.271Z,18.10
2019-02-27T12:25:29.018Z,18.20
2019-02-27T12:27:57.265Z,18.20
2019-02-27T12:30:26.730Z,18.20
2019-02-27T12:32:56.799Z,18.30
2019-02-27T12:35:27.891Z,18.40
2019-02-27T12:37:57.111Z,18.50
2019-02-27T12:40:26.263Z,18.50
2019-02-27T12:42:55.475Z,18.60
2019-02-27T12:45:26.505Z,18.60
2019-02-27T12:47:55.875Z,18.80
2019-02-27T12:50:26.851Z,18.90
2019-02-27T12:52:56.312Z,19.00
2019-02-27T12:55:25.675Z,19.00
2019-02-27T12:57:54.720Z,19.00
2019-02-27T13:00:26.139Z,19.10
2019-02-27T13:02:55.354Z,19.20
2019-02-27T13:05:27.358Z,19.20
2019-02-27T13:07:55.339Z,19.20
2019-02-27T13:10:24.564Z,19.30
2019-02-27T13:12:53.729Z,19.30
2019-02-27T13:15:23.465Z,19.40
2019-02-27T13:17:56.178Z,19.50
2019-02-27T13:20:24.851Z,19.50
2019-02-27T13:22:55.650Z,19.50
2019-02-27T13:25:24.939Z,19.60
2019-02-27T13:27:55.833Z,19.60
2019-02-27T13:30:27.545Z,19.70
2019-02-27T13:33:00.709Z,19.70
2019-02-27T13:35:28.702Z,19.80
2019-02-27T13:37:59.490Z,19.80
2019-02-27T13:40:28.655Z,19.80
2019-02-27T13:43:01.065Z,19.80
2019-02-27T13:45:28.709Z,19.90
2019-02-27T13:47:59.093Z,19.90
2019-02-27T13:50:28.215Z,19.90
2019-02-27T13:52:57.424Z,19.90
2019-02-27T13:55:26.575Z,19.80
2019-02-27T13:57:58.759Z,19.80
2019-02-27T14:00:28.395Z,19.90
2019-02-27T14:02:57.732Z,19.90
2019-02-27T14:05:26.915Z,19.90
2019-02-27T14:07:58.478Z,19.80
2019-02-27T14:10:27.565Z,19.80
2019-02-27T14:12:56.713Z,19.80
2019-02-27T14:15:27.265Z,19.80
2019-02-27T14:17:56.679Z,19.70
2019-02-27T14:20:26.961Z,19.60
2019-02-27T14:22:56.323Z,19.60
2019-02-27T14:25:31.049Z,19.50
2019-02-27T14:27:57.261Z,19.50
2019-02-27T14:30:28.824Z,19.50
2019-02-27T14:32:57.816Z,19.50
2019-02-27T14:35:26.974Z,19.40
2019-02-27T14:37:56.693Z,19.30
2019-02-27T14:40:26.018Z,19.20
2019-02-27T14:42:55.271Z,19.20
2019-02-27T14:45:24.539Z,19.10
2019-02-27T14:47:53.598Z,19.10
2019-02-27T14:50:22.966Z,19.00
2019-02-27T14:52:52.095Z,19.00
2019-02-27T14:55:21.173Z,19.00
2019-02-27T14:57:51.344Z,19.00
2019-02-27T15:00:28.367Z,18.90
2019-02-27T15:02:57.553Z,18.90
2019-02-27T15:05:26.754Z,18.80
2019-02-27T15:07:55.787Z,18.80
2019-02-27T15:10:24.945Z,18.70
2019-02-27T15:12:55.595Z,18.70
2019-02-27T15:15:26.556Z,18.70
2019-02-27T15:17:55.859Z,18.60
2019-02-27T15:20:25.806Z,18.60
2019-02-27T15:22:54.908Z,18.50
2019-02-27T15:25:23.944Z,18.50
2019-02-27T15:27:58.194Z,18.40
2019-02-27T15:30:25.263Z,18.40
2019-02-27T15:32:54.159Z,18.30
2019-02-27T15:35:23.439Z,18.30
2019-02-27T15:37:52.531Z,18.20
2019-02-27T15:40:22.627Z,18.20
2019-02-27T15:42:52.167Z,18.20
2019-02-27T15:45:21.444Z,18.10
2019-02-27T15:47:50.763Z,18.00
2019-02-27T15:50:22.952Z,18.00
2019-02-27T15:52:51.478Z,18.00
2019-02-27T15:55:20.638Z,18.00
2019-02-27T15:57:53.509Z,18.00
2019-02-27T16:00:21.660Z,17.90
2019-02-27T16:02:50.742Z,17.90
2019-02-27T16:05:19.910Z,17.90
2019-02-27T16:07:49.844Z,17.80
2019-02-27T16:10:20.378Z,17.70
2019-02-27T16:12:49.426Z,17.80
2019-02-27T16:15:18.627Z,17.70
2019-02-27T16:17:47.892Z,17.70
2019-02-27T16:20:17.556Z,17.60
2019-02-27T16:22:46.578Z,17.50
2019-02-27T16:25:19.895Z,17.40
2019-02-27T16:27:48.725Z,17.40
2019-02-27T16:30:23.629Z,17.30
2019-02-27T16:32:52.778Z,17.30
2019-02-27T16:35:21.998Z,17.30
2019-02-27T16:37:56.631Z,17.30
2019-02-27T16:40:22.162Z,17.20
2019-02-27T16:42:51.233Z,17.20
2019-02-27T16:45:22.398Z,17.10
2019-02-27T16:47:53.982Z,17.10
2019-02-27T16:50:24.736Z,17.00
2019-02-27T16:52:54.347Z,17.00
2019-02-27T16:55:24.048Z,16.90
2019-02-27T16:57:56.488Z,16.90
2019-02-27T17:00:26.172Z,16.80
2019-02-27T17:02:56.983Z,16.80
2019-02-27T17:05:26.476Z,16.80
2019-02-27T17:08:00.680Z,16.70
2019-02-27T17:10:29.377Z,16.60
2019-02-27T17:12:58.890Z,16.60
2019-02-27T17:15:28.133Z,16.60
2019-02-27T17:17:57.056Z,16.60
2019-02-27T17:20:26.239Z,16.50
2019-02-27T17:22:55.378Z,16.50
2019-02-27T17:25:28.971Z,16.50
2019-02-27T17:27:55.539Z,16.40
2019-02-27T17:30:26.542Z,16.40
2019-02-27T17:32:55.618Z,16.30
2019-02-27T17:35:24.812Z,16.20
2019-02-27T17:37:54.255Z,16.20
2019-02-27T17:40:23.572Z,16.10
2019-02-27T17:42:53.581Z,16.10
2019-02-27T17:45:23.716Z,16.00
2019-02-27T17:47:52.916Z,15.90
2019-02-27T17:50:22.217Z,15.80
2019-02-27T17:52:51.687Z,15.70
2019-02-27T17:55:21.047Z,15.70
2019-02-27T17:57:50.344Z,15.60
2019-02-27T18:00:31.209Z,15.50
2019-02-27T18:03:04.979Z,15.50
2019-02-27T18:05:33.269Z,15.40
2019-02-27T18:08:03.474Z,15.30
2019-02-27T18:10:37.206Z,15.20
2019-02-27T18:13:03.620Z,15.00
2019-02-27T18:15:32.824Z,14.90
2019-02-27T18:18:02.048Z,14.70
2019-02-27T18:20:32.046Z,14.60
2019-02-27T18:23:01.659Z,14.50
2019-02-27T18:25:30.882Z,14.40
2019-02-27T18:27:59.989Z,14.30
2019-02-27T18:30:29.198Z,14.10
2019-02-27T18:32:58.410Z,14.00
2019-02-27T18:35:29.581Z,13.90
2019-02-27T18:37:58.648Z,13.90
2019-02-27T18:40:29.760Z,13.90
2019-02-27T18:42:58.927Z,13.80
2019-02-27T18:45:28.059Z,13.80
2019-02-27T18:47:58.763Z,13.80
2019-02-27T18:50:28.171Z,13.70
2019-02-27T18:52:57.347Z,13.70
2019-02-27T18:55:30.829Z,13.60
2019-02-27T18:57:57.385Z,13.60
2019-02-27T19:00:26.583Z,13.60
2019-02-27T19:02:56.009Z,13.60
2019-02-27T19:05:25.098Z,13.60
2019-02-27T19:07:55.203Z,13.50
2019-02-27T19:10:24.615Z,13.40
2019-02-27T19:12:53.803Z,13.30
2019-02-27T19:15:22.992Z,13.30
2019-02-27T19:17:52.164Z,13.20
2019-02-27T19:20:24.865Z,13.20
2019-02-27T19:22:54.350Z,13.20
2019-02-27T19:25:23.818Z,13.20
2019-02-27T19:28:24.852Z,13.20
2019-02-27T19:30:54.101Z,13.30
2019-02-27T19:33:23.275Z,13.20
2019-02-27T19:38:59.905Z,13.20
2019-02-27T19:41:29.596Z,13.20
2019-02-27T19:44:01.175Z,13.20
2019-02-27T19:46:49.564Z,13.20
2019-02-27T19:49:22.171Z,13.30
2019-02-27T19:51:54.630Z,13.40
2019-02-27T19:54:25.122Z,13.40
2019-02-27T19:56:56.921Z,13.40
2019-02-27T20:02:28.227Z,13.30
2019-02-27T20:04:59.839Z,13.20
2019-02-27T20:07:29.040Z,13.00
2019-02-27T20:10:01.063Z,12.90
2019-02-27T20:12:38.884Z,12.80
2019-02-27T20:15:17.549Z,12.80
2019-02-27T20:17:43.243Z,12.70
2019-02-27T20:20:13.679Z,12.60
2019-02-27T20:22:43.451Z,12.50
2019-02-27T20:25:13.699Z,12.40
2019-02-27T20:28:15.403Z,12.40
2019-02-27T20:30:50.669Z,12.30
2019-02-27T20:33:22.194Z,12.20
2019-02-27T20:35:52.395Z,12.20
2019-02-27T20:38:21.507Z,12.10
2019-02-27T20:41:15.599Z,12.10
2019-02-27T20:43:44.839Z,12.10
2019-02-27T20:46:16.904Z,12.00
2019-02-27T20:48:46.542Z,11.90
2019-02-27T20:51:15.697Z,11.90
2019-02-27T20:53:45.228Z,11.80
2019-02-27T20:56:35.895Z,11.80
2019-02-27T20:59:04.604Z,11.80
2019-02-27T21:01:46.662Z,11.80
2019-02-27T21:04:12.019Z,11.80
2019-02-27T21:06:48.451Z,11.80
2019-02-27T21:09:45.164Z,11.70
2019-02-27T21:12:13.724Z,11.70
2019-02-27T21:14:42.864Z,11.60
2019-02-27T21:17:12.150Z,11.70
2019-02-27T21:19:41.323Z,11.70
2019-02-27T21:22:10.744Z,11.70
2019-02-27T21:24:40.493Z,11.70
2019-02-27T21:27:10.352Z,11.90
2019-02-27T21:29:40.228Z,12.00
2019-02-27T21:32:10.452Z,12.00
2019-02-27T21:34:39.661Z,12.10
2019-02-27T21:37:09.988Z,12.10
2019-02-27T21:39:40.204Z,12.10
2019-02-27T21:42:09.285Z,12.10
2019-02-27T21:44:39.227Z,12.10
2019-02-27T21:47:08.336Z,12.10
2019-02-27T21:49:37.450Z,12.10
2019-02-27T21:52:06.475Z,12.10
2019-02-27T21:54:39.228Z,12.10
2019-02-27T21:57:06.427Z,12.20
2019-02-27T21:59:36.355Z,12.20
2019-02-27T22:02:06.343Z,12.20
2019-02-27T22:04:35.487Z,12.20
2019-02-27T22:07:04.636Z,12.20
2019-02-27T22:09:33.623Z,12.20
2019-02-27T22:12:02.840Z,12.20
2019-02-27T22:14:32.001Z,12.10
2019-02-27T22:17:01.691Z,12.10
2019-02-27T22:19:31.776Z,12.10
2019-02-27T22:22:01.716Z,12.10
2019-02-27T22:24:30.819Z,12.00
2019-02-27T22:26:59.863Z,12.00
2019-02-27T22:29:29.026Z,12.00
2019-02-27T22:31:58.178Z,12.00
2019-02-27T22:34:28.008Z,11.90
2019-02-27T22:36:57.965Z,11.80
2019-02-27T22:39:27.331Z,11.70
2019-02-27T22:41:56.449Z,11.70
2019-02-27T22:44:26.294Z,11.70
2019-02-27T22:46:56.363Z,11.70
2019-02-27T22:49:25.401Z,11.70
2019-02-27T22:51:54.455Z,11.70
2019-02-27T22:54:23.491Z,11.70
2019-02-27T22:56:52.733Z,11.70
2019-02-27T22:59:21.828Z,11.70
2019-02-27T23:01:54.799Z,11.70
2019-02-27T23:04:24.652Z,11.60
2019-02-27T23:06:53.789Z,11.60
2019-02-27T23:09:25.681Z,11.50
2019-02-27T23:11:53.836Z,11.50
2019-02-27T23:14:23.023Z,11.50
2019-02-27T23:16:52.262Z,11.50
2019-02-27T23:19:21.384Z,11.50
2019-02-27T23:21:50.488Z,11.50
2019-02-27T23:24:19.667Z,11.40
2019-02-27T23:26:54.352Z,11.40
2019-02-27T23:29:19.808Z,11.30
2019-02-27T23:31:48.890Z,11.20
2019-02-27T23:34:18.032Z,11.20
2019-02-27T23:36:47.404Z,11.10
2019-02-27T23:39:16.740Z,11.00
2019-02-27T23:41:45.912Z,11.00
2019-02-27T23:44:15.303Z,11.10
2019-02-27T23:46:49.733Z,11.10
2019-02-27T23:49:15.431Z,11.00
2019-02-27T23:51:47.713Z,11.10
2019-02-27T23:54:15.972Z,11.10
2019-02-27T23:56:45.221Z,11.10
2019-02-27T23:59:14.316Z,11.10
